sensor_id;sensor_type;location;lat;lon;timestamp;pressure;altitude;pressure_sealevel;temperature;humidity
21821;BME280;11073;48.586;12.066;2022-08-21T00:02:03;96530.22;;;19.20;77.44
21821;BME280;11073;48.586;12.066;2022-08-21T00:04:32;96535.41;;;19.21;77.28
21821;BME280;11073;48.586;12.066;2022-08-21T00:07:02;96534.59;;;19.21;77.73
21821;BME280;11073;48.586;12.066;2022-08-21T00:09:31;96528.28;;;19.20;77.69
21821;BME280;11073;48.586;12.066;2022-08-21T00:11:59;96534.59;;;19.21;77.27
21821;BME280;11073;48.586;12.066;2022-08-21T00:14:29;96532.66;;;19.21;77.50
21821;BME280;11073;48.586;12.066;2022-08-21T00:16:59;96526.66;;;19.19;77.36
21821;BME280;11073;48.586;12.066;2022-08-21T00:19:29;96522.00;;;19.20;77.07
21821;BME280;11073;48.586;12.066;2022-08-21T00:21:58;96526.38;;;19.21;77.15
21821;BME280;11073;48.586;12.066;2022-08-21T00:24:28;96522.50;;;19.22;77.19
21821;BME280;11073;48.586;12.066;2022-08-21T00:26:57;96520.88;;;19.21;77.59
21821;BME280;11073;48.586;12.066;2022-08-21T00:29:26;96518.66;;;19.23;77.27
21821;BME280;11073;48.586;12.066;2022-08-21T00:31:55;96504.63;;;19.24;77.63
21821;BME280;11073;48.586;12.066;2022-08-21T00:34:23;96503.81;;;19.24;77.71
21821;BME280;11073;48.586;12.066;2022-08-21T00:36:52;96512.88;;;19.24;77.68
21821;BME280;11073;48.586;12.066;2022-08-21T00:39:21;96506.84;;;19.22;77.43
21821;BME280;11073;48.586;12.066;2022-08-21T00:41:51;96507.44;;;19.19;77.40
21821;BME280;11073;48.586;12.066;2022-08-21T00:44:20;96506.34;;;19.20;77.73
21821;BME280;11073;48.586;12.066;2022-08-21T00:46:49;96504.72;;;19.19;77.97
21821;BME280;11073;48.586;12.066;2022-08-21T00:49:17;96503.94;;;19.14;77.75
21821;BME280;11073;48.586;12.066;2022-08-21T00:51:50;96504.47;;;19.16;77.87
21821;BME280;11073;48.586;12.066;2022-08-21T00:54:22;96494.59;;;19.15;77.99
21821;BME280;11073;48.586;12.066;2022-08-21T00:56:58;96501.13;;;19.19;78.22
21821;BME280;11073;48.586;12.066;2022-08-21T00:59:32;96492.06;;;19.18;78.30
21821;BME280;11073;48.586;12.066;2022-08-21T01:02:04;96492.63;;;19.20;78.29
21821;BME280;11073;48.586;12.066;2022-08-21T01:04:33;96491.00;;;19.19;78.18
21821;BME280;11073;48.586;12.066;2022-08-21T01:07:02;96484.94;;;19.17;78.20
21821;BME280;11073;48.586;12.066;2022-08-21T01:09:31;96482.75;;;19.19;78.45
21821;BME280;11073;48.586;12.066;2022-08-21T01:12:02;96481.41;;;19.17;78.16
21821;BME280;11073;48.586;12.066;2022-08-21T01:14:31;96476.72;;;19.17;78.43
21821;BME280;11073;48.586;12.066;2022-08-21T01:17:02;96477.03;;;19.16;78.45
21821;BME280;11073;48.586;12.066;2022-08-21T01:19:31;96475.38;;;19.15;78.44
21821;BME280;11073;48.586;12.066;2022-08-21T01:22:03;96477.03;;;19.16;78.42
21821;BME280;11073;48.586;12.066;2022-08-21T01:24:32;96480.59;;;19.16;78.13
21821;BME280;11073;48.586;12.066;2022-08-21T01:27:01;96483.31;;;19.16;78.26
21821;BME280;11073;48.586;12.066;2022-08-21T01:29:35;96459.88;;;19.05;78.10
21821;BME280;11073;48.586;12.066;2022-08-21T01:32:08;96478.66;;;19.17;78.37
21821;BME280;11073;48.586;12.066;2022-08-21T01:34:40;96483.03;;;19.18;77.96
21821;BME280;11073;48.586;12.066;2022-08-21T01:37:12;96478.66;;;19.17;78.19
21821;BME280;11073;48.586;12.066;2022-08-21T01:39:44;96472.06;;;19.18;78.15
21821;BME280;11073;48.586;12.066;2022-08-21T01:42:13;96478.34;;;19.18;77.85
21821;BME280;11073;48.586;12.066;2022-08-21T01:44:42;96480.00;;;19.19;77.82
21821;BME280;11073;48.586;12.066;2022-08-21T01:47:14;96475.91;;;19.17;78.01
21821;BME280;11073;48.586;12.066;2022-08-21T01:49:44;96475.59;;;19.18;77.91
21821;BME280;11073;48.586;12.066;2022-08-21T01:52:14;96480.59;;;19.16;78.17
21821;BME280;11073;48.586;12.066;2022-08-21T01:54:43;96482.00;;;19.14;77.75
21821;BME280;11073;48.586;12.066;2022-08-21T01:57:21;96478.69;;;19.12;78.37
21821;BME280;11073;48.586;12.066;2022-08-21T01:59:52;96476.25;;;19.10;78.44
21821;BME280;11073;48.586;12.066;2022-08-21T02:02:21;96482.84;;;19.09;78.19
21821;BME280;11073;48.586;12.066;2022-08-21T02:04:50;96475.44;;;19.10;78.43
21821;BME280;11073;48.586;12.066;2022-08-21T02:07:20;96475.44;;;19.10;78.34
21821;BME280;11073;48.586;12.066;2022-08-21T02:09:49;96471.88;;;19.09;78.29
21821;BME280;11073;48.586;12.066;2022-08-21T02:12:20;96469.66;;;19.11;78.25
21821;BME280;11073;48.586;12.066;2022-08-21T02:14:48;96474.63;;;19.09;78.03
21821;BME280;11073;48.586;12.066;2022-08-21T02:17:17;96467.50;;;19.08;78.42
21821;BME280;11073;48.586;12.066;2022-08-21T02:19:46;96467.50;;;19.08;78.33
21821;BME280;11073;48.586;12.066;2022-08-21T02:22:15;96464.75;;;19.08;78.10
21821;BME280;11073;48.586;12.066;2022-08-21T02:24:44;96474.13;;;19.07;77.98
21821;BME280;11073;48.586;12.066;2022-08-21T02:27:22;96477.41;;;19.04;77.89
21821;BME280;11073;48.586;12.066;2022-08-21T02:29:55;96478.22;;;19.05;78.13
21821;BME280;11073;48.586;12.066;2022-08-21T02:32:24;96465.63;;;19.04;78.03
21821;BME280;11073;48.586;12.066;2022-08-21T02:34:54;96468.69;;;19.02;78.08
21821;BME280;11073;48.586;12.066;2022-08-21T02:37:23;96468.38;;;19.04;78.05
21821;BME280;11073;48.586;12.066;2022-08-21T02:39:53;96468.69;;;19.02;77.83
21821;BME280;11073;48.586;12.066;2022-08-21T02:42:22;96475.28;;;19.01;77.69
21821;BME280;11073;48.586;12.066;2022-08-21T02:44:51;96479.94;;;19.00;77.60
21821;BME280;11073;48.586;12.066;2022-08-21T02:47:20;96477.19;;;19.00;77.40
21821;BME280;11073;48.586;12.066;2022-08-21T02:49:49;96480.50;;;18.97;77.51
21821;BME280;11073;48.586;12.066;2022-08-21T02:52:17;96477.25;;;18.95;77.32
21821;BME280;11073;48.586;12.066;2022-08-21T02:54:46;96478.66;;;18.93;77.32
21821;BME280;11073;48.586;12.066;2022-08-21T02:57:16;96477.31;;;18.90;77.21
21821;BME280;11073;48.586;12.066;2022-08-21T02:59:44;96478.69;;;18.88;76.99
21821;BME280;11073;48.586;12.066;2022-08-21T03:02:14;96480.94;;;18.86;76.90
21821;BME280;11073;48.586;12.066;2022-08-21T03:04:42;96478.47;;;18.84;76.99
21821;BME280;11073;48.586;12.066;2022-08-21T03:07:13;96480.41;;;18.84;77.13
21821;BME280;11073;48.586;12.066;2022-08-21T03:09:42;96479.34;;;18.80;77.03
21821;BME280;11073;48.586;12.066;2022-08-21T03:12:23;96479.94;;;18.77;76.64
21821;BME280;11073;48.586;12.066;2022-08-21T03:14:56;96473.09;;;18.74;76.50
21821;BME280;11073;48.586;12.066;2022-08-21T03:17:25;96470.13;;;18.70;76.80
21821;BME280;11073;48.586;12.066;2022-08-21T03:19:57;96483.81;;;18.70;76.65
21821;BME280;11073;48.586;12.066;2022-08-21T03:22:26;96477.53;;;18.70;76.72
21821;BME280;11073;48.586;12.066;2022-08-21T03:24:57;96479.16;;;18.71;76.38
21821;BME280;11073;48.586;12.066;2022-08-21T03:27:28;96476.72;;;18.69;76.46
21821;BME280;11073;48.586;12.066;2022-08-21T03:29:58;96476.16;;;18.67;76.72
21821;BME280;11073;48.586;12.066;2022-08-21T03:32:27;96478.91;;;18.67;76.30
21821;BME280;11073;48.586;12.066;2022-08-21T03:34:56;96473.72;;;18.66;76.59
21821;BME280;11073;48.586;12.066;2022-08-21T03:37:26;96472.09;;;18.60;76.61
21821;BME280;11073;48.586;12.066;2022-08-21T03:39:55;96477.84;;;18.63;76.52
21821;BME280;11073;48.586;12.066;2022-08-21T03:42:24;96484.13;;;18.64;76.42
21821;BME280;11073;48.586;12.066;2022-08-21T03:44:54;96483.88;;;18.60;76.20
21821;BME280;11073;48.586;12.066;2022-08-21T03:47:22;96488.53;;;18.60;76.45
21821;BME280;11073;48.586;12.066;2022-08-21T03:49:51;96492.97;;;18.56;76.29
21821;BME280;11073;48.586;12.066;2022-08-21T03:52:21;96488.31;;;18.56;76.09
21821;BME280;11073;48.586;12.066;2022-08-21T03:54:50;96495.16;;;18.54;76.31
21821;BME280;11073;48.586;12.066;2022-08-21T03:57:19;96490.28;;;18.51;76.07
21821;BME280;11073;48.586;12.066;2022-08-21T03:59:49;96490.06;;;18.47;76.29
21821;BME280;11073;48.586;12.066;2022-08-21T04:02:20;96492.25;;;18.45;76.01
21821;BME280;11073;48.586;12.066;2022-08-21T04:04:49;96493.34;;;18.44;76.41
21821;BME280;11073;48.586;12.066;2022-08-21T04:07:17;96493.63;;;18.42;76.06
21821;BME280;11073;48.586;12.066;2022-08-21T04:09:46;96495.56;;;18.42;76.36
21821;BME280;11073;48.586;12.066;2022-08-21T04:12:15;96495.84;;;18.40;76.37
21821;BME280;11073;48.586;12.066;2022-08-21T04:14:44;96505.16;;;18.39;76.30
21821;BME280;11073;48.586;12.066;2022-08-21T04:17:12;96499.69;;;18.39;76.34
21821;BME280;11073;48.586;12.066;2022-08-21T04:19:42;96510.13;;;18.37;76.47
21821;BME280;11073;48.586;12.066;2022-08-21T04:22:11;96510.41;;;18.36;76.36
21821;BME280;11073;48.586;12.066;2022-08-21T04:24:40;96512.63;;;18.34;76.40
21821;BME280;11073;48.586;12.066;2022-08-21T04:27:09;96512.06;;;18.32;76.14
21821;BME280;11073;48.586;12.066;2022-08-21T04:29:38;96509.91;;;18.29;76.35
21821;BME280;11073;48.586;12.066;2022-08-21T04:32:07;96517.31;;;18.28;76.04
21821;BME280;11073;48.586;12.066;2022-08-21T04:34:36;96526.13;;;18.25;76.28
21821;BME280;11073;48.586;12.066;2022-08-21T04:37:06;96533.50;;;18.25;75.91
21821;BME280;11073;48.586;12.066;2022-08-21T04:39:35;96532.16;;;18.22;76.01
21821;BME280;11073;48.586;12.066;2022-08-21T04:42:04;96538.47;;;18.23;75.88
21821;BME280;11073;48.586;12.066;2022-08-21T04:44:34;96540.66;;;18.21;76.14
21821;BME280;11073;48.586;12.066;2022-08-21T04:47:03;96530.53;;;18.21;76.14
21821;BME280;11073;48.586;12.066;2022-08-21T04:49:33;96539.56;;;18.22;75.86
21821;BME280;11073;48.586;12.066;2022-08-21T04:52:02;96536.81;;;18.22;75.79
21821;BME280;11073;48.586;12.066;2022-08-21T04:54:33;96545.84;;;18.22;76.10
21821;BME280;11073;48.586;12.066;2022-08-21T04:57:05;96530.53;;;18.21;75.89
21821;BME280;11073;48.586;12.066;2022-08-21T04:59:38;96540.38;;;18.22;75.54
21821;BME280;11073;48.586;12.066;2022-08-21T05:02:08;96536.00;;;18.21;75.54
21821;BME280;11073;48.586;12.066;2022-08-21T05:04:41;96536.81;;;18.22;75.79
21821;BME280;11073;48.586;12.066;2022-08-21T05:07:16;96537.63;;;18.22;75.75
21821;BME280;11073;48.586;12.066;2022-08-21T05:10:09;96549.41;;;18.23;75.65
21821;BME280;11073;48.586;12.066;2022-08-21T05:12:40;96545.31;;;18.25;75.91
21821;BME280;11073;48.586;12.066;2022-08-21T05:15:11;96543.94;;;18.23;75.85
21821;BME280;11073;48.586;12.066;2022-08-21T05:17:41;96549.41;;;18.23;75.56
21821;BME280;11073;48.586;12.066;2022-08-21T05:20:19;96545.03;;;18.22;76.04
21821;BME280;11073;48.586;12.066;2022-08-21T05:22:48;96545.03;;;18.22;75.54
21821;BME280;11073;48.586;12.066;2022-08-21T05:25:18;96551.63;;;18.21;75.76
21821;BME280;11073;48.586;12.066;2022-08-21T05:27:50;96553.28;;;18.16;75.26
21821;BME280;11073;48.586;12.066;2022-08-21T05:30:19;96553.97;;;17.98;75.41
21821;BME280;11073;48.586;12.066;2022-08-21T05:32:48;96557.03;;;17.86;75.88
21821;BME280;11073;48.586;12.066;2022-08-21T05:35:17;96554.06;;;17.78;76.13
21821;BME280;11073;48.586;12.066;2022-08-21T05:37:46;96559.78;;;17.81;76.42
21821;BME280;11073;48.586;12.066;2022-08-21T05:40:15;96557.31;;;17.85;76.51
21821;BME280;11073;48.586;12.066;2022-08-21T05:42:50;96560.28;;;17.88;76.54
21821;BME280;11073;48.586;12.066;2022-08-21T05:45:23;96559.75;;;17.91;76.86
21821;BME280;11073;48.586;12.066;2022-08-21T05:48:12;96554.56;;;17.90;76.49
21821;BME280;11073;48.586;12.066;2022-08-21T05:50:42;96564.41;;;17.91;76.34
21821;BME280;11073;48.586;12.066;2022-08-21T05:53:12;96563.84;;;17.94;76.55
21821;BME280;11073;48.586;12.066;2022-08-21T05:55:41;96563.28;;;17.97;76.73
21821;BME280;11073;48.586;12.066;2022-08-21T05:58:16;96568.75;;;17.97;76.73
21821;BME280;11073;48.586;12.066;2022-08-21T06:00:47;96567.91;;;18.02;76.46
21821;BME280;11073;48.586;12.066;2022-08-21T06:03:17;96568.97;;;18.06;76.63
21821;BME280;11073;48.586;12.066;2022-08-21T06:05:46;96567.28;;;18.10;76.94
21821;BME280;11073;48.586;12.066;2022-08-21T06:08:18;96562.91;;;18.14;76.61
21821;BME280;11073;48.586;12.066;2022-08-21T06:10:48;96563.72;;;18.14;76.32
21821;BME280;11073;48.586;12.066;2022-08-21T06:13:20;96571.94;;;18.14;76.62
21821;BME280;11073;48.586;12.066;2022-08-21T06:15:50;96567.53;;;18.18;76.25
21821;BME280;11073;48.586;12.066;2022-08-21T06:18:19;96570.50;;;18.27;76.35
21821;BME280;11073;48.586;12.066;2022-08-21T06:20:47;96564.97;;;18.32;76.41
21821;BME280;11073;48.586;12.066;2022-08-21T06:23:16;96567.16;;;18.30;76.19
21821;BME280;11073;48.586;12.066;2022-08-21T06:25:45;96569.34;;;18.33;76.34
21821;BME280;11073;48.586;12.066;2022-08-21T06:28:13;96565.53;;;18.29;76.36
21821;BME280;11073;48.586;12.066;2022-08-21T06:30:43;96572.34;;;18.32;76.02
21821;BME280;11073;48.586;12.066;2022-08-21T06:33:11;96572.09;;;18.33;76.11
21821;BME280;11073;48.586;12.066;2022-08-21T06:35:44;96564.63;;;18.39;75.87
21821;BME280;11073;48.586;12.066;2022-08-21T06:38:12;96562.97;;;18.43;76.23
21821;BME280;11073;48.586;12.066;2022-08-21T06:40:41;96571.97;;;18.49;75.83
21821;BME280;11073;48.586;12.066;2022-08-21T06:43:15;96565.06;;;18.56;75.70
21821;BME280;11073;48.586;12.066;2022-08-21T06:45:45;96571.34;;;18.62;75.27
21821;BME280;11073;48.586;12.066;2022-08-21T06:48:15;96560.59;;;18.65;75.28
21821;BME280;11073;48.586;12.066;2022-08-21T06:50:46;96565.25;;;18.70;74.97
21821;BME280;11073;48.586;12.066;2022-08-21T06:53:17;96560.59;;;18.70;74.89
21821;BME280;11073;48.586;12.066;2022-08-21T06:55:47;96559.72;;;18.75;74.50
21821;BME280;11073;48.586;12.066;2022-08-21T06:58:16;96562.19;;;18.77;74.06
21821;BME280;11073;48.586;12.066;2022-08-21T07:00:49;96562.72;;;18.79;74.10
21821;BME280;11073;48.586;12.066;2022-08-21T07:03:27;96556.13;;;18.80;74.29
21821;BME280;11073;48.586;12.066;2022-08-21T07:05:56;96566.28;;;18.79;73.65
21821;BME280;11073;48.586;12.066;2022-08-21T07:08:26;96558.53;;;18.86;73.89
21821;BME280;11073;48.586;12.066;2022-08-21T07:10:57;96562.56;;;18.94;74.00
21821;BME280;11073;48.586;12.066;2022-08-21T07:13:26;96566.09;;;18.99;73.68
21821;BME280;11073;48.586;12.066;2022-08-21T07:15:57;96567.13;;;19.04;73.45
21821;BME280;11073;48.586;12.066;2022-08-21T07:18:30;96562.47;;;19.04;73.64
21821;BME280;11073;48.586;12.066;2022-08-21T07:21:00;96570.44;;;19.06;73.54
21821;BME280;11073;48.586;12.066;2022-08-21T07:23:33;96572.00;;;19.12;73.27
21821;BME280;11073;48.586;12.066;2022-08-21T07:26:03;96567.06;;;19.14;73.25
21821;BME280;11073;48.586;12.066;2022-08-21T07:28:32;96565.91;;;19.20;72.89
21821;BME280;11073;48.586;12.066;2022-08-21T07:31:02;96559.16;;;19.31;72.81
21821;BME280;11073;48.586;12.066;2022-08-21T07:33:34;96561.28;;;19.39;72.75
21821;BME280;11073;48.586;12.066;2022-08-21T07:36:03;96560.41;;;19.44;72.52
21821;BME280;11073;48.586;12.066;2022-08-21T07:38:32;96563.91;;;19.49;72.76
21821;BME280;11073;48.586;12.066;2022-08-21T07:41:02;96563.03;;;19.54;72.32
21821;BME280;11073;48.586;12.066;2022-08-21T07:43:31;96557.81;;;19.58;71.89
21821;BME280;11073;48.586;12.066;2022-08-21T07:46:01;96555.81;;;19.63;72.33
21821;BME280;11073;48.586;12.066;2022-08-21T07:48:30;96554.88;;;19.73;72.00
21821;BME280;11073;48.586;12.066;2022-08-21T07:51:03;96553.91;;;19.82;71.51
21821;BME280;11073;48.586;12.066;2022-08-21T07:53:33;96559.28;;;19.93;71.52
21821;BME280;11073;48.586;12.066;2022-08-21T07:56:02;96562.50;;;20.00;71.11
21821;BME280;11073;48.586;12.066;2022-08-21T07:58:31;96554.97;;;20.05;71.23
21821;BME280;11073;48.586;12.066;2022-08-21T08:01:01;96561.28;;;20.06;70.54
21821;BME280;11073;48.586;12.066;2022-08-21T08:03:30;96561.81;;;20.08;70.25
21821;BME280;11073;48.586;12.066;2022-08-21T08:05:58;96565.09;;;20.10;70.57
21821;BME280;11073;48.586;12.066;2022-08-21T08:08:28;96566.72;;;20.11;69.98
21821;BME280;11073;48.586;12.066;2022-08-21T08:10:57;96564.47;;;20.13;70.37
21821;BME280;11073;48.586;12.066;2022-08-21T08:13:27;96562.72;;;20.22;70.47
21821;BME280;11073;48.586;12.066;2022-08-21T08:15:56;96568.22;;;20.22;70.18
21821;BME280;11073;48.586;12.066;2022-08-21T08:18:26;96567.41;;;20.22;70.15
21821;BME280;11073;48.586;12.066;2022-08-21T08:20:54;96560.31;;;20.34;70.09
21821;BME280;11073;48.586;12.066;2022-08-21T08:23:23;96567.25;;;20.51;69.35
21821;BME280;11073;48.586;12.066;2022-08-21T08:25:52;96558.53;;;20.62;69.41
21821;BME280;11073;48.586;12.066;2022-08-21T08:28:21;96558.09;;;20.74;69.18
21821;BME280;11073;48.586;12.066;2022-08-21T08:30:50;96558.81;;;20.80;68.52
21821;BME280;11073;48.586;12.066;2022-08-21T08:33:19;96562.50;;;20.89;68.43
21821;BME280;11073;48.586;12.066;2022-08-21T08:35:50;96563.75;;;20.97;68.52
21821;BME280;11073;48.586;12.066;2022-08-21T08:38:22;96560.38;;;21.00;68.21
21821;BME280;11073;48.586;12.066;2022-08-21T08:40:55;96558.34;;;21.05;68.13
21821;BME280;11073;48.586;12.066;2022-08-21T08:43:27;96559.19;;;21.06;67.96
21821;BME280;11073;48.586;12.066;2022-08-21T08:45:58;96562.97;;;21.10;67.75
21821;BME280;11073;48.586;12.066;2022-08-21T08:48:41;96561.38;;;21.23;67.48
21821;BME280;11073;48.586;12.066;2022-08-21T08:51:23;96564.56;;;21.30;67.30
21821;BME280;11073;48.586;12.066;2022-08-21T08:53:57;96560.97;;;21.29;67.12
21821;BME280;11073;48.586;12.066;2022-08-21T08:56:29;96569.97;;;21.35;66.41
21821;BME280;11073;48.586;12.066;2022-08-21T08:59:01;96562.00;;;21.33;66.62
21821;BME280;11073;48.586;12.066;2022-08-21T09:01:30;96568.00;;;21.35;66.28
21821;BME280;11073;48.586;12.066;2022-08-21T09:04:05;96562.34;;;21.45;66.51
21821;BME280;11073;48.586;12.066;2022-08-21T09:06:53;96573.75;;;21.53;66.20
21821;BME280;11073;48.586;12.066;2022-08-21T09:09:41;96575.69;;;21.52;66.31
21821;BME280;11073;48.586;12.066;2022-08-21T09:12:17;96573.84;;;21.47;66.03
21821;BME280;11073;48.586;12.066;2022-08-21T09:14:54;96581.72;;;21.54;66.29
21821;BME280;11073;48.586;12.066;2022-08-21T09:17:36;96565.78;;;21.65;66.16
21821;BME280;11073;48.586;12.066;2022-08-21T09:20:17;96568.44;;;21.70;66.02
21821;BME280;11073;48.586;12.066;2022-08-21T09:23:03;96575.06;;;21.69;66.14
21821;BME280;11073;48.586;12.066;2022-08-21T09:25:42;96564.25;;;21.72;65.69
21821;BME280;11073;48.586;12.066;2022-08-21T09:28:13;96570.06;;;21.85;65.85
21821;BME280;11073;48.586;12.066;2022-08-21T09:30:42;96567.78;;;22.00;65.35
21821;BME280;11073;48.586;12.066;2022-08-21T09:33:12;96566.47;;;22.25;65.47
21821;BME280;11073;48.586;12.066;2022-08-21T09:35:50;96572.56;;;22.58;64.93
21821;BME280;11073;48.586;12.066;2022-08-21T09:38:29;96557.69;;;22.82;64.26
21821;BME280;11073;48.586;12.066;2022-08-21T09:41:01;96579.75;;;22.82;63.78
21821;BME280;11073;48.586;12.066;2022-08-21T09:43:31;96575.81;;;22.74;63.67
21821;BME280;11073;48.586;12.066;2022-08-21T09:46:07;96574.56;;;22.67;63.55
21821;BME280;11073;48.586;12.066;2022-08-21T09:48:43;96576.75;;;22.92;63.29
21821;BME280;11073;48.586;12.066;2022-08-21T09:51:16;96574.81;;;23.24;62.57
21821;BME280;11073;48.586;12.066;2022-08-21T09:53:49;96572.53;;;23.48;62.34
21821;BME280;11073;48.586;12.066;2022-08-21T09:56:25;96567.75;;;23.62;61.73
21821;BME280;11073;48.586;12.066;2022-08-21T09:59:18;96576.84;;;23.63;61.29
21821;BME280;11073;48.586;12.066;2022-08-21T10:01:50;96574.03;;;24.11;60.86
21821;BME280;11073;48.586;12.066;2022-08-21T10:04:21;96579.50;;;24.68;60.00
21821;BME280;11073;48.586;12.066;2022-08-21T10:06:50;96574.16;;;24.63;58.97
21821;BME280;11073;48.586;12.066;2022-08-21T10:09:25;96573.47;;;24.40;58.71
21821;BME280;11073;48.586;12.066;2022-08-21T10:12:09;96569.75;;;24.54;58.79
21821;BME280;11073;48.586;12.066;2022-08-21T10:14:49;96568.59;;;25.07;58.38
21821;BME280;11073;48.586;12.066;2022-08-21T10:17:26;96572.91;;;25.34;57.13
21821;BME280;11073;48.586;12.066;2022-08-21T10:20:02;96564.69;;;24.99;56.79
21821;BME280;11073;48.586;12.066;2022-08-21T10:22:38;96558.16;;;24.69;56.75
21821;BME280;11073;48.586;12.066;2022-08-21T10:25:14;96562.91;;;24.51;56.98
21821;BME280;11073;48.586;12.066;2022-08-21T10:27:55;96560.78;;;24.74;56.96
21821;BME280;11073;48.586;12.066;2022-08-21T10:30:36;96565.31;;;24.96;56.76
21821;BME280;11073;48.586;12.066;2022-08-21T10:33:20;96563.50;;;25.17;56.20
21821;BME280;11073;48.586;12.066;2022-08-21T10:35:58;96559.28;;;25.02;55.88
21821;BME280;11073;48.586;12.066;2022-08-21T10:38:52;96558.81;;;25.00;56.14
21821;BME280;11073;48.586;12.066;2022-08-21T10:42:02;96562.69;;;25.64;55.41
21821;BME280;11073;48.586;12.066;2022-08-21T10:44:39;96563.47;;;26.11;54.91
21821;BME280;11073;48.586;12.066;2022-08-21T10:47:18;96558.19;;;26.48;54.17
21821;BME280;11073;48.586;12.066;2022-08-21T10:49:55;96558.84;;;26.86;53.54
21821;BME280;11073;48.586;12.066;2022-08-21T10:52:39;96554.03;;;27.16;52.32
21821;BME280;11073;48.586;12.066;2022-08-21T10:55:16;96556.19;;;27.56;52.06
21821;BME280;11073;48.586;12.066;2022-08-21T10:57:50;96551.03;;;28.03;51.24
21821;BME280;11073;48.586;12.066;2022-08-21T11:00:21;96552.97;;;28.40;50.35
21821;BME280;11073;48.586;12.066;2022-08-21T11:03:02;96553.44;;;28.05;49.51
21821;BME280;11073;48.586;12.066;2022-08-21T11:05:34;96554.16;;;27.90;49.34
21821;BME280;11073;48.586;12.066;2022-08-21T11:08:07;96544.03;;;27.73;48.95
21821;BME280;11073;48.586;12.066;2022-08-21T11:10:40;96531.91;;;27.90;49.11
21821;BME280;11073;48.586;12.066;2022-08-21T11:13:35;96542.91;;;27.98;48.36
21821;BME280;11073;48.586;12.066;2022-08-21T11:16:12;96537.31;;;28.23;48.10
21821;BME280;11073;48.586;12.066;2022-08-21T11:18:45;96528.88;;;28.60;47.38
21821;BME280;11073;48.586;12.066;2022-08-21T11:21:27;96531.91;;;28.95;46.71
21821;BME280;11073;48.586;12.066;2022-08-21T11:24:14;96530.53;;;28.89;46.06
21821;BME280;11073;48.586;12.066;2022-08-21T11:26:49;96528.94;;;28.47;46.20
21821;BME280;11073;48.586;12.066;2022-08-21T11:29:25;96524.19;;;28.23;46.31
21821;BME280;11073;48.586;12.066;2022-08-21T11:32:03;96522.25;;;27.87;46.63
21821;BME280;11073;48.586;12.066;2022-08-21T11:34:45;96517.97;;;27.53;46.95
21821;BME280;11073;48.586;12.066;2022-08-21T11:37:21;96515.97;;;27.66;47.29
21821;BME280;11073;48.586;12.066;2022-08-21T11:40:00;96514.59;;;28.21;46.96
21821;BME280;11073;48.586;12.066;2022-08-21T11:42:37;96502.97;;;28.71;46.50
21821;BME280;11073;48.586;12.066;2022-08-21T11:45:30;96506.81;;;29.23;45.67
21821;BME280;11073;48.586;12.066;2022-08-21T11:48:08;96509.19;;;29.52;44.53
21821;BME280;11073;48.586;12.066;2022-08-21T11:50:43;96502.16;;;29.27;44.29
21821;BME280;11073;48.586;12.066;2022-08-21T11:53:18;96499.53;;;28.90;44.62
21821;BME280;11073;48.586;12.066;2022-08-21T11:55:53;96499.09;;;29.32;44.94
21821;BME280;11073;48.586;12.066;2022-08-21T11:58:27;96504.59;;;29.76;44.22
21821;BME280;11073;48.586;12.066;2022-08-21T12:01:04;96499.38;;;29.74;43.79
21821;BME280;11073;48.586;12.066;2022-08-21T12:03:36;96495.69;;;29.54;43.63
21821;BME280;11073;48.586;12.066;2022-08-21T12:06:11;96486.91;;;29.52;43.91
21821;BME280;11073;48.586;12.066;2022-08-21T12:08:58;96492.91;;;29.86;43.66
21821;BME280;11073;48.586;12.066;2022-08-21T12:11:27;96488.44;;;30.16;42.51
21821;BME280;11073;48.586;12.066;2022-08-21T12:13:59;96478.47;;;30.35;41.90
21821;BME280;11073;48.586;12.066;2022-08-21T12:16:33;96492.41;;;30.51;41.58
21821;BME280;11073;48.586;12.066;2022-08-21T12:19:04;96491.22;;;30.71;41.48
21821;BME280;11073;48.586;12.066;2022-08-21T12:21:34;96486.97;;;30.96;41.09
21821;BME280;11073;48.586;12.066;2022-08-21T12:24:20;96483.81;;;31.21;40.90
21821;BME280;11073;48.586;12.066;2022-08-21T12:27:01;96490.56;;;31.39;40.33
21821;BME280;11073;48.586;12.066;2022-08-21T12:29:46;96478.06;;;31.33;39.51
21821;BME280;11073;48.586;12.066;2022-08-21T12:32:25;96471.69;;;31.33;39.62
21821;BME280;11073;48.586;12.066;2022-08-21T12:35:01;96479.56;;;31.50;39.30
21821;BME280;11073;48.586;12.066;2022-08-21T12:37:37;96468.59;;;31.64;38.96
21821;BME280;11073;48.586;12.066;2022-08-21T12:40:12;96465.09;;;31.94;38.61
21821;BME280;11073;48.586;12.066;2022-08-21T12:42:45;96465.00;;;32.13;38.52
21821;BME280;11073;48.586;12.066;2022-08-21T12:45:29;96452.50;;;32.33;38.14
21821;BME280;11073;48.586;12.066;2022-08-21T12:48:07;96460.28;;;32.17;37.41
21821;BME280;11073;48.586;12.066;2022-08-21T12:50:41;96451.66;;;32.03;37.34
21821;BME280;11073;48.586;12.066;2022-08-21T12:53:25;96450.69;;;32.18;36.77
21821;BME280;11073;48.586;12.066;2022-08-21T12:55:55;96444.31;;;32.48;36.82
21821;BME280;11073;48.586;12.066;2022-08-21T12:58:28;96436.16;;;32.69;36.29
21821;BME280;11073;48.586;12.066;2022-08-21T13:01:05;96439.56;;;32.85;35.87
21821;BME280;11073;48.586;12.066;2022-08-21T13:03:36;96433.31;;;33.03;35.93
21821;BME280;11073;48.586;12.066;2022-08-21T13:06:07;96438.66;;;32.78;35.54
21821;BME280;11073;48.586;12.066;2022-08-21T13:08:37;96432.31;;;32.84;35.44
21821;BME280;11073;48.586;12.066;2022-08-21T13:11:15;96430.97;;;33.05;34.87
21821;BME280;11073;48.586;12.066;2022-08-21T13:14:00;96429.94;;;33.24;34.36
21821;BME280;11073;48.586;12.066;2022-08-21T13:16:31;96428.84;;;33.35;33.57
21821;BME280;11073;48.586;12.066;2022-08-21T13:19:05;96423.72;;;33.41;32.67